Ana Sayfa
METAR-TAF:

METAR-TAF

Havaalanları :

Blacksburg, Virginia, Amerika Birleşik Devletleri

Enlem: 37-13N, Boylam: 080-25W, yükseklik: 650 m

Güncel hava durumu gözlemi

Rapor saat 11:35 UTC de 18 dakika önce yapıldı.
Rüzgar batı/kuzeybatıdan 4 kt
Sıcaklık -3°C
Nem 74%
Basınç 1027 hPa
Görüş mesafesi: 16.1 km
Açık gökyüzü

METAR: KBCB 111135Z AUTO 29004KT 10SM CLR M03/M07 A3033 RMK AO2 LTG DSNT SE T10311072

Saat: 06:53 (11:53 UTC)

Tahmin

Rapor saat 11:41 UTC de 12 dakika önce yapıldı.
Ayın 11'si saat 12 UTC'den ayın 12'si saat 12 UTC'ye kadar geçerli Tahmin
Rüzgar batı/kuzeybatıdan 6 kt
Görüş mesafesi: 10 km
Açık gökyüzü
Ayın 11'si saat 1300 UTC'den
Rüzgar batı/kuzeybatıdan 6 kt ve 15 kt'a kadar ani rüzgarlar
Görüş mesafesi: 10 km
Açık gökyüzü
Ayın 12'si saat 0000 UTC'den
Rüzgar değişken yönden 4 kt
Görüş mesafesi: 10 km
Açık gökyüzü

TAF: KBCB 111141Z 1112/1212 29006KT P6SM SKC FM111300 29006G15KT P6SM SKC FM120000 VRB04KT P6SM SKC

4.000'den fazla havaalanı için hava durumu gözlemleri ve tahminleri (METAR ve TAF raporları).

Kullanılabilir istasyonlar harita üzerinde sarı ve kırmızı noktalarla gösterilir.

İstasyonun adını görmek için fareyi noktanın üzerinde gezdirin.

Sonrasında hava gözlem ve tahminlerini görmek için tıklayın.

Haritayı değiştirmek için: yaklaştırmak için siyah artı işaretli yeşil düğmeye ve uzaklaştırmak için de eksi işaretli düğmeye hızla tıklayın; bitişik haritalar için yeşil okları kullanın.


METAR-TAF: